Time;durP1;ratioP1;P1;durP2;ratioP2;P2;SDS_P1;SDS_P2;PMS_P1;PMS_P2;Temp;Humidity;BMP_temperature;BMP_pressure;BME280_temperature;BME280_humidity;BME280_pressure;Samples;Min_cycle;Max_cycle;Signal;HPM_P1;HPM_P2
2024/02/08 00:02:16;;;;;;;1.33;0.80;;;;;;;;;;5076453;28;20391;-78
2024/02/08 00:04:42;;;;;;;0.82;0.82;;;;;;;;;;5070035;28;20495;-77
2024/02/08 00:07:09;;;;;;;1.23;1.10;;;;;;;;;;5083774;28;20099;-78
2024/02/08 00:09:35;;;;;;;1.05;0.70;;;;;;;;;;5078392;28;20025;-78
2024/02/08 00:12:02;;;;;;;1.50;0.80;;;;;;;;;;5088923;28;20021;-76
2024/02/08 00:14:28;;;;;;;1.48;0.75;;;;;;;;;;5089561;28;20024;-77
2024/02/08 00:16:54;;;;;;;0.82;0.60;;;;;;;;;;5068498;28;20622;-77
2024/02/08 00:19:20;;;;;;;1.67;0.80;;;;;;;;;;5059937;28;20047;-78
2024/02/08 00:21:46;;;;;;;2.80;1.00;;;;;;;;;;5080253;28;20029;-77
2024/02/08 00:24:13;;;;;;;2.10;1.10;;;;;;;;;;5078240;28;20043;-77
2024/02/08 00:26:41;;;;;;;1.42;0.55;;;;;;;;;;5080113;28;20039;-79
2024/02/08 00:29:07;;;;;;;1.00;0.63;;;;;;;;;;5068172;28;20013;-78
2024/02/08 00:31:33;;;;;;;1.20;1.10;;;;;;;;;;5075989;28;20037;-78
2024/02/08 00:34:00;;;;;;;1.15;0.73;;;;;;;;;;5078327;28;20070;-77
2024/02/08 00:36:26;;;;;;;0.80;0.60;;;;;;;;;;5077641;28;20056;-77
2024/02/08 00:38:52;;;;;;;1.17;0.70;;;;;;;;;;5070399;28;20051;-77
2024/02/08 00:41:23;;;;;;;0.63;0.55;;;;;;;;;;5078642;28;20028;-77
2024/02/08 00:43:50;;;;;;;1.23;0.50;;;;;;;;;;5082577;28;20044;-78
2024/02/08 00:46:16;;;;;;;1.30;0.38;;;;;;;;;;5079132;28;20108;-77
2024/02/08 00:48:43;;;;;;;0.45;0.40;;;;;;;;;;5081888;28;20025;-78
2024/02/08 00:51:12;;;;;;;1.10;0.47;;;;;;;;;;5080002;28;20471;-77
2024/02/08 00:53:38;;;;;;;0.75;0.50;;;;;;;;;;5084485;28;20032;-78
2024/02/08 00:56:04;;;;;;;0.55;0.43;;;;;;;;;;5094261;28;20029;-77
2024/02/08 00:58:31;;;;;;;0.45;0.32;;;;;;;;;;5079914;28;20078;-78
2024/02/08 01:00:57;;;;;;;0.63;0.50;;;;;;;;;;5085389;28;20111;-77
2024/02/08 01:03:24;;;;;;;1.00;0.50;;;;;;;;;;5077517;28;20025;-77
2024/02/08 01:05:53;;;;;;;0.65;0.32;;;;;;;;;;5064135;28;20021;-77
2024/02/08 01:08:22;;;;;;;1.45;0.50;;;;;;;;;;5076939;28;20029;-77
2024/02/08 01:10:48;;;;;;;1.23;0.43;;;;;;;;;;5080571;28;20029;-77
2024/02/08 01:13:17;;;;;;;1.50;0.50;;;;;;;;;;5089498;28;20032;-77
2024/02/08 01:15:46;;;;;;;1.00;0.38;;;;;;;;;;5068447;28;20070;-78
2024/02/08 01:18:13;;;;;;;1.45;0.63;;;;;;;;;;5075405;28;20079;-78
2024/02/08 01:20:39;;;;;;;0.98;0.50;;;;;;;;;;5080850;28;20032;-77
2024/02/08 01:23:06;;;;;;;0.57;0.30;;;;;;;;;;5085226;28;20013;-78
2024/02/08 01:25:32;;;;;;;0.52;0.40;;;;;;;;;;5076198;28;20024;-78
2024/02/08 01:28:00;;;;;;;0.43;0.20;;;;;;;;;;5077981;28;20286;-77
2024/02/08 01:30:26;;;;;;;0.30;0.30;;;;;;;;;;5077709;28;20031;-77
2024/02/08 01:32:53;;;;;;;0.30;0.30;;;;;;;;;;5076239;28;20107;-77
2024/02/08 01:35:21;;;;;;;0.50;0.30;;;;;;;;;;5075595;28;20021;-77
2024/02/08 01:37:51;;;;;;;0.82;0.30;;;;;;;;;;5073607;28;20071;-77
2024/02/08 01:40:17;;;;;;;0.70;0.30;;;;;;;;;;5075388;28;20037;-77
2024/02/08 01:42:44;;;;;;;0.10;0.10;;;;;;;;;;5081336;28;20085;-77
2024/02/08 01:45:38;;;;;;;0.10;0.10;;;;;;;;;;5076019;28;20028;-77
2024/02/08 01:48:05;;;;;;;0.35;0.20;;;;;;;;;;5084135;28;20017;-77
2024/02/08 01:50:35;;;;;;;0.40;0.40;;;;;;;;;;5076969;28;20033;-77
2024/02/08 01:53:02;;;;;;;1.75;0.30;;;;;;;;;;5077486;28;20020;-77
2024/02/08 01:55:33;;;;;;;0.28;0.28;;;;;;;;;;5081652;28;20037;-76
2024/02/08 01:58:08;;;;;;;0.70;0.20;;;;;;;;;;5092220;28;20031;-76
2024/02/08 02:00:36;;;;;;;0.45;0.30;;;;;;;;;;5089232;28;20036;-76
2024/02/08 02:03:04;;;;;;;0.95;0.30;;;;;;;;;;5091258;28;20074;-77
2024/02/08 02:05:30;;;;;;;0.17;0.17;;;;;;;;;;5094151;28;20020;-77
2024/02/08 02:07:58;;;;;;;0.17;0.17;;;;;;;;;;5091633;28;20024;-77
2024/02/08 02:10:30;;;;;;;0.57;0.13;;;;;;;;;;5079724;28;20403;-77
2024/02/08 02:12:58;;;;;;;1.83;0.30;;;;;;;;;;5079639;28;20028;-77
2024/02/08 02:15:31;;;;;;;0.20;0.20;;;;;;;;;;5074701;28;20033;-77
2024/02/08 02:17:59;;;;;;;0.10;0.10;;;;;;;;;;5084053;28;20030;-78
2024/02/08 02:20:29;;;;;;;1.55;0.40;;;;;;;;;;5072660;28;20028;-77
2024/02/08 02:22:57;;;;;;;0.32;0.20;;;;;;;;;;5070766;28;20025;-77
2024/02/08 02:25:25;;;;;;;0.90;0.22;;;;;;;;;;5069483;28;20035;-77
2024/02/08 02:27:53;;;;;;;0.10;0.10;;;;;;;;;;5090552;28;20051;-76
2024/02/08 02:30:21;;;;;;;0.93;0.30;;;;;;;;;;5073428;28;20036;-77
2024/02/08 02:32:49;;;;;;;0.28;0.28;;;;;;;;;;5074231;28;20025;-77
2024/02/08 02:35:17;;;;;;;0.85;0.20;;;;;;;;;;5071947;28;20028;-77
2024/02/08 02:37:46;;;;;;;2.65;0.20;;;;;;;;;;5068676;28;20085;-77
2024/02/08 02:40:24;;;;;;;0.20;0.20;;;;;;;;;;5080911;28;20032;-77
2024/02/08 02:42:57;;;;;;;0.65;0.10;;;;;;;;;;5081391;28;20485;-77
2024/02/08 02:45:23;;;;;;;0.30;0.30;;;;;;;;;;5072728;28;20032;-77
2024/02/08 02:48:01;;;;;;;0.38;0.38;;;;;;;;;;5072787;28;20116;-77
2024/02/08 02:50:27;;;;;;;1.17;0.20;;;;;;;;;;5069027;28;20033;-78
2024/02/08 02:52:53;;;;;;;0.10;0.10;;;;;;;;;;5074045;28;20069;-77
2024/02/08 02:55:20;;;;;;;0.10;0.10;;;;;;;;;;5074370;28;20037;-77
2024/02/08 02:57:47;;;;;;;0.50;0.25;;;;;;;;;;5074852;28;20146;-78
2024/02/08 03:00:24;;;;;;;0.90;0.10;;;;;;;;;;5091676;28;20111;-78
2024/02/08 03:02:50;;;;;;;0.82;0.10;;;;;;;;;;5076306;28;20021;-77
2024/02/08 03:05:23;;;;;;;0.10;0.10;;;;;;;;;;5092765;27;20035;-77
2024/02/08 03:07:49;;;;;;;0.13;0.10;;;;;;;;;;5110977;27;20055;-77
2024/02/08 03:10:19;;;;;;;0.90;0.10;;;;;;;;;;5092757;28;20029;-77
2024/02/08 03:12:45;;;;;;;0.10;0.10;;;;;;;;;;5090226;27;20008;-77
2024/02/08 03:15:12;;;;;;;0.10;0.10;;;;;;;;;;5098211;27;20039;-77
2024/02/08 03:17:38;;;;;;;0.30;0.20;;;;;;;;;;5096706;28;20029;-77
2024/02/08 03:20:08;;;;;;;0.20;0.20;;;;;;;;;;5096245;28;20021;-76
2024/02/08 03:22:35;;;;;;;0.20;0.20;;;;;;;;;;5096734;28;20027;-77
2024/02/08 03:25:04;;;;;;;0.22;0.05;;;;;;;;;;5095545;28;20009;-76
2024/02/08 03:27:32;;;;;;;0.17;0.10;;;;;;;;;;5086231;28;20024;-78
2024/02/08 03:29:59;;;;;;;0.43;0.10;;;;;;;;;;5084012;28;20020;-78
2024/02/08 03:32:27;;;;;;;0.20;0.15;;;;;;;;;;5080021;28;20044;-77
2024/02/08 03:34:54;;;;;;;0.20;0.20;;;;;;;;;;5078053;28;20025;-77
2024/02/08 03:37:20;;;;;;;0.38;0.10;;;;;;;;;;5078940;28;20032;-77
2024/02/08 03:39:47;;;;;;;0.00;0.00;;;;;;;;;;5083416;28;20046;-76
2024/02/08 03:42:14;;;;;;;0.20;0.20;;;;;;;;;;5080744;28;20028;-77
2024/02/08 03:44:40;;;;;;;0.10;0.00;;;;;;;;;;5091983;27;20084;-77
2024/02/08 03:47:07;;;;;;;0.50;0.10;;;;;;;;;;5097337;27;20096;-77
2024/02/08 03:49:37;;;;;;;0.10;0.10;;;;;;;;;;5090603;28;20046;-77
2024/02/08 03:52:04;;;;;;;0.00;0.00;;;;;;;;;;5081495;28;20040;-77
2024/02/08 03:54:30;;;;;;;0.00;0.00;;;;;;;;;;5078976;28;20017;-78
2024/02/08 03:57:05;;;;;;;0.10;0.10;;;;;;;;;;5079321;28;20394;-78
2024/02/08 03:59:32;;;;;;;0.03;0.03;;;;;;;;;;5071297;28;20021;-77
2024/02/08 04:02:03;;;;;;;0.88;0.20;;;;;;;;;;5076436;28;20434;-77
2024/02/08 04:04:35;;;;;;;0.30;0.30;;;;;;;;;;5070583;28;20023;-78
2024/02/08 04:07:15;;;;;;;0.00;0.00;;;;;;;;;;5078238;28;20021;-78
2024/02/08 04:09:48;;;;;;;0.10;0.10;;;;;;;;;;5084660;28;20024;-79
2024/02/08 04:53:36;;;;;;;0.35;0.05;;;;;;;;;;5084384;28;20040;-77
2024/02/08 04:56:08;;;;;;;0.00;0.00;;;;;;;;;;5093926;28;20028;-78
2024/02/08 04:58:34;;;;;;;0.00;0.00;;;;;;;;;;5079217;28;20016;-77
2024/02/08 05:01:04;;;;;;;0.03;0.00;;;;;;;;;;5081717;28;20482;-77
2024/02/08 05:03:36;;;;;;;0.00;0.00;;;;;;;;;;5082194;28;20021;-78
2024/02/08 05:06:03;;;;;;;0.10;0.10;;;;;;;;;;5081694;28;20555;-77
2024/02/08 05:08:29;;;;;;;0.30;0.00;;;;;;;;;;5083196;28;20036;-77
2024/02/08 05:10:55;;;;;;;0.00;0.00;;;;;;;;;;5081813;28;20020;-77
2024/02/08 05:13:24;;;;;;;0.00;0.00;;;;;;;;;;5083455;28;20028;-81
2024/02/08 05:15:50;;;;;;;0.10;0.10;;;;;;;;;;5078763;28;20051;-78
2024/02/08 05:18:16;;;;;;;0.13;0.10;;;;;;;;;;5077876;28;20028;-77
2024/02/08 05:20:42;;;;;;;0.00;0.00;;;;;;;;;;5080685;28;20032;-77
2024/02/08 05:23:08;;;;;;;0.10;0.10;;;;;;;;;;5077693;28;20021;-78
2024/02/08 05:25:35;;;;;;;0.10;0.10;;;;;;;;;;5081962;28;20021;-77
2024/02/08 05:28:05;;;;;;;0.10;0.10;;;;;;;;;;5083098;28;20027;-77
2024/02/08 05:30:32;;;;;;;0.10;0.10;;;;;;;;;;5078420;28;20044;-78
2024/02/08 05:33:01;;;;;;;0.55;0.10;;;;;;;;;;5080149;28;20035;-78
2024/02/08 05:35:31;;;;;;;0.28;0.10;;;;;;;;;;5078569;28;20017;-78
2024/02/08 05:37:58;;;;;;;0.10;0.10;;;;;;;;;;5076230;28;20495;-79
2024/02/08 05:40:24;;;;;;;0.10;0.10;;;;;;;;;;5077940;28;20421;-77
2024/02/08 05:42:51;;;;;;;0.65;0.10;;;;;;;;;;5093566;28;20023;-78
2024/02/08 05:45:20;;;;;;;0.10;0.10;;;;;;;;;;5094728;28;20020;-78
2024/02/08 05:47:49;;;;;;;0.20;0.00;;;;;;;;;;5071970;28;20368;-77
2024/02/08 05:50:22;;;;;;;0.10;0.10;;;;;;;;;;5077015;28;20241;-78
2024/02/08 05:52:51;;;;;;;0.10;0.10;;;;;;;;;;5077847;28;20031;-77
2024/02/08 05:55:19;;;;;;;0.00;0.00;;;;;;;;;;5076793;28;20051;-78
2024/02/08 05:57:46;;;;;;;0.10;0.10;;;;;;;;;;5069980;28;20048;-73
2024/02/08 06:00:31;;;;;;;0.00;0.00;;;;;;;;;;5076515;28;20719;-78
2024/02/08 06:03:01;;;;;;;0.00;0.00;;;;;;;;;;5074218;28;20021;-77
2024/02/08 06:05:27;;;;;;;0.05;0.05;;;;;;;;;;5079900;28;20644;-78
2024/02/08 06:07:56;;;;;;;0.05;0.05;;;;;;;;;;5082026;28;20135;-77
2024/02/08 06:10:23;;;;;;;1.02;0.20;;;;;;;;;;5084005;28;20483;-78
2024/02/08 06:12:59;;;;;;;0.35;0.10;;;;;;;;;;5102235;28;20149;-77
2024/02/08 06:15:32;;;;;;;0.20;0.20;;;;;;;;;;5099819;28;20024;-78
2024/02/08 06:18:03;;;;;;;0.00;0.00;;;;;;;;;;5067131;28;20047;-78
2024/02/08 06:20:40;;;;;;;0.20;0.20;;;;;;;;;;5078402;28;20111;-77
2024/02/08 06:23:16;;;;;;;0.30;0.00;;;;;;;;;;5078853;28;20467;-78
2024/02/08 06:26:01;;;;;;;0.55;0.40;;;;;;;;;;5063924;28;20017;-78
2024/02/08 06:28:29;;;;;;;0.25;0.25;;;;;;;;;;5079198;28;20445;-78
2024/02/08 06:30:58;;;;;;;0.25;0.08;;;;;;;;;;5076271;28;20074;-78
2024/02/08 06:33:25;;;;;;;2.55;0.20;;;;;;;;;;5078952;28;20036;-78
2024/02/08 06:35:56;;;;;;;0.03;0.03;;;;;;;;;;5079228;28;20028;-78
2024/02/08 06:38:40;;;;;;;0.10;0.10;;;;;;;;;;5077827;28;20032;-77
2024/02/08 06:41:09;;;;;;;0.47;0.20;;;;;;;;;;5078230;28;20028;-77
2024/02/08 06:46:47;;;;;;;0.40;0.20;;;;;;;;;;5051992;28;20028;-78
2024/02/08 07:39:30;;;;;;;0.25;0.20;;;;;;;;;;5070115;28;20039;-79
2024/02/08 07:41:53;;;;;;;1.50;0.80;;;;;;;;;;5080325;28;20047;-79
2024/02/08 07:44:22;;;;;;;1.35;0.47;;;;;;;;;;5092305;28;20032;-77
2024/02/08 07:46:49;;;;;;;0.17;0.17;;;;;;;;;;5073478;28;20056;-78
2024/02/08 07:49:15;;;;;;;0.63;0.32;;;;;;;;;;5083944;28;20062;-77
2024/02/08 07:51:49;;;;;;;0.98;0.20;;;;;;;;;;5074857;28;20024;-77
2024/02/08 07:54:20;;;;;;;0.25;0.25;;;;;;;;;;5079214;28;20032;-77
2024/02/08 07:56:46;;;;;;;0.40;0.30;;;;;;;;;;5081977;28;20458;-77
2024/02/08 07:59:16;;;;;;;2.75;0.65;;;;;;;;;;5084448;28;20083;-77
2024/02/08 08:01:49;;;;;;;0.82;0.45;;;;;;;;;;5087875;28;20021;-76
2024/02/08 08:04:41;;;;;;;0.32;0.10;;;;;;;;;;5083204;28;20080;-77
2024/02/08 08:07:01;;;;;;;0.22;0.22;;;;;;;;;;5085210;28;20035;-77
2024/02/08 08:09:27;;;;;;;0.43;0.20;;;;;;;;;;5080063;28;20046;-77
2024/02/08 08:11:55;;;;;;;2.55;0.28;;;;;;;;;;5083315;28;20027;-78
2024/02/08 08:19:44;;;;;;;0.75;0.40;;;;;;;;;;5068845;28;20033;-77
2024/02/08 08:28:09;;;;;;;0.35;0.20;;;;;;;;;;5075699;28;20039;-78
2024/02/08 08:30:38;;;;;;;0.10;0.10;;;;;;;;;;5071032;28;20093;-78
2024/02/08 08:40:41;;;;;;;0.25;0.05;;;;;;;;;;5076617;28;20035;-76
2024/02/08 08:43:19;;;;;;;0.15;0.15;;;;;;;;;;5092706;28;20009;-76
2024/02/08 08:45:50;;;;;;;1.08;0.38;;;;;;;;;;5073592;28;20502;-77
2024/02/08 08:48:18;;;;;;;0.68;0.63;;;;;;;;;;5079571;28;20016;-78
2024/02/08 08:50:50;;;;;;;2.22;0.75;;;;;;;;;;5088224;28;20479;-78
2024/02/08 08:53:19;;;;;;;0.75;0.68;;;;;;;;;;5080792;28;20016;-79
2024/02/08 08:55:49;;;;;;;0.45;0.30;;;;;;;;;;5080803;28;20074;-79
2024/02/08 08:58:16;;;;;;;0.20;0.20;;;;;;;;;;5083567;28;20380;-78
2024/02/08 09:00:58;;;;;;;0.75;0.30;;;;;;;;;;5082495;28;20020;-79
2024/02/08 09:03:28;;;;;;;0.43;0.43;;;;;;;;;;5083824;28;20146;-79
2024/02/08 09:05:57;;;;;;;0.57;0.25;;;;;;;;;;5082743;28;20024;-80
2024/02/08 09:08:25;;;;;;;0.60;0.22;;;;;;;;;;5084455;28;20052;-78
2024/02/08 09:10:52;;;;;;;0.35;0.17;;;;;;;;;;5084829;28;20040;-77
2024/02/08 09:13:21;;;;;;;1.45;0.57;;;;;;;;;;5085815;28;20051;-77
2024/02/08 09:15:56;;;;;;;2.05;0.50;;;;;;;;;;5080209;28;20448;-77
2024/02/08 09:19:03;;;;;;;0.35;0.32;;;;;;;;;;5084259;28;20029;-79
2024/02/08 09:21:13;;;;;;;0.40;0.40;;;;;;;;;;5081334;28;20506;-78
2024/02/08 09:23:39;;;;;;;0.30;0.30;;;;;;;;;;5080815;28;20016;-78
2024/02/08 09:26:11;;;;;;;0.20;0.10;;;;;;;;;;5085797;28;20024;-79
2024/02/08 09:28:42;;;;;;;;;;;;;;;;;;5082011;28;20032;-77
2024/02/08 09:31:16;;;;;;;2.20;0.50;;;;;;;;;;5086178;28;19908;-76
2024/02/08 09:33:47;;;;;;;0.30;0.30;;;;;;;;;;5085714;28;20024;-78
2024/02/08 09:36:14;;;;;;;0.10;0.10;;;;;;;;;;5082973;28;20067;-77
2024/02/08 09:38:44;;;;;;;0.57;0.30;;;;;;;;;;5078898;28;20037;-77
2024/02/08 09:41:15;;;;;;;1.33;0.40;;;;;;;;;;5078366;28;20090;-77
2024/02/08 09:43:45;;;;;;;0.47;0.25;;;;;;;;;;5073000;28;20025;-77
2024/02/08 09:46:28;;;;;;;1.35;0.32;;;;;;;;;;5070341;28;20017;-76
2024/02/08 09:48:54;;;;;;;0.10;0.10;;;;;;;;;;5078741;28;20150;-77
2024/02/08 09:51:23;;;;;;;1.90;0.20;;;;;;;;;;5074742;28;20044;-77
2024/02/08 09:53:54;;;;;;;1.15;0.40;;;;;;;;;;5077535;28;20048;-78
2024/02/08 09:56:28;;;;;;;0.20;0.10;;;;;;;;;;5079082;28;20479;-77
2024/02/08 09:59:07;;;;;;;0.55;0.20;;;;;;;;;;5076426;28;20077;-74
2024/02/08 10:01:43;;;;;;;0.75;0.40;;;;;;;;;;5077026;28;20027;-74
2024/02/08 10:04:16;;;;;;;0.38;0.20;;;;;;;;;;5069501;28;20024;-74
2024/02/08 10:07:06;;;;;;;1.75;0.20;;;;;;;;;;5075972;28;20025;-74
2024/02/08 10:09:46;;;;;;;0.75;0.28;;;;;;;;;;5067741;28;20025;-75
2024/02/08 10:12:20;;;;;;;1.88;0.60;;;;;;;;;;5075757;28;20020;-74
2024/02/08 10:14:50;;;;;;;3.80;0.38;;;;;;;;;;5071017;28;20016;-74
2024/02/08 10:17:28;;;;;;;1.23;0.30;;;;;;;;;;5072666;28;20040;-74
2024/02/08 10:28:11;;;;;;;0.50;0.50;;;;;;;;;;5075553;28;20024;-75
2024/02/08 10:30:37;;;;;;;0.30;0.30;;;;;;;;;;5075386;28;20028;-75
2024/02/08 10:33:04;;;;;;;0.63;0.43;;;;;;;;;;5075325;28;20020;-77
2024/02/08 10:35:39;;;;;;;0.57;0.40;;;;;;;;;;5074301;28;20024;-76
2024/02/08 10:38:18;;;;;;;1.65;0.20;;;;;;;;;;5074929;28;20052;-76
2024/02/08 10:40:55;;;;;;;0.85;0.40;;;;;;;;;;5069468;28;20024;-77
2024/02/08 10:43:25;;;;;;;0.47;0.17;;;;;;;;;;5075532;28;20095;-77
2024/02/08 10:46:02;;;;;;;0.35;0.25;;;;;;;;;;5075961;28;20029;-77
2024/02/08 10:48:31;;;;;;;1.08;0.30;;;;;;;;;;5075179;28;20040;-77
2024/02/08 10:51:02;;;;;;;1.00;0.63;;;;;;;;;;5077593;28;20024;-76
2024/02/08 10:53:43;;;;;;;1.08;0.40;;;;;;;;;;5073865;28;20025;-76
2024/02/08 10:56:23;;;;;;;1.42;0.60;;;;;;;;;;5077742;28;20379;-76
2024/02/08 10:59:00;;;;;;;0.40;0.40;;;;;;;;;;5083998;28;20029;-76
2024/02/08 11:01:37;;;;;;;0.68;0.38;;;;;;;;;;5078278;28;20035;-76
2024/02/08 11:04:28;;;;;;;0.20;0.20;;;;;;;;;;5082623;28;20019;-76
2024/02/08 11:07:17;;;;;;;2.00;0.40;;;;;;;;;;5086954;28;20016;-76
2024/02/08 11:09:47;;;;;;;0.85;0.55;;;;;;;;;;5074288;28;20530;-76
2024/02/08 11:12:21;;;;;;;1.05;0.20;;;;;;;;;;5081830;28;20077;-77
2024/02/08 11:14:53;;;;;;;0.32;0.30;;;;;;;;;;5081237;28;20115;-76
2024/02/08 11:17:24;;;;;;;0.98;0.38;;;;;;;;;;5081328;28;20028;-78
2024/02/08 11:19:56;;;;;;;1.40;0.40;;;;;;;;;;5080122;28;20506;-77
2024/02/08 11:22:43;;;;;;;1.17;0.30;;;;;;;;;;5081139;28;20033;-76
2024/02/08 11:25:19;;;;;;;0.38;0.20;;;;;;;;;;5062334;28;20025;-76
2024/02/08 11:27:48;;;;;;;0.22;0.22;;;;;;;;;;5067804;28;20017;-76
2024/02/08 11:30:21;;;;;;;0.20;0.20;;;;;;;;;;5076171;28;20016;-76
2024/02/08 11:33:01;;;;;;;0.30;0.30;;;;;;;;;;5077108;28;20031;-75
2024/02/08 11:35:30;;;;;;;0.40;0.40;;;;;;;;;;5074785;28;20122;-77
2024/02/08 11:38:07;;;;;;;1.60;0.40;;;;;;;;;;5076067;28;20025;-76
2024/02/08 11:40:36;;;;;;;1.95;0.40;;;;;;;;;;5067296;28;20036;-77
2024/02/08 11:43:05;;;;;;;0.60;0.60;;;;;;;;;;5082741;28;20016;-76
2024/02/08 11:45:35;;;;;;;3.15;0.55;;;;;;;;;;5075924;28;20024;-78
2024/02/08 11:48:05;;;;;;;3.38;1.10;;;;;;;;;;5076711;28;20504;-76
2024/02/08 11:50:36;;;;;;;0.63;0.60;;;;;;;;;;5074405;28;20040;-75
2024/02/08 11:53:04;;;;;;;0.50;0.50;;;;;;;;;;5081572;28;20039;-76
2024/02/08 11:55:33;;;;;;;0.30;0.30;;;;;;;;;;5078270;28;20036;-76
2024/02/08 11:58:03;;;;;;;0.32;0.30;;;;;;;;;;5075589;28;20024;-77
2024/02/08 12:00:30;;;;;;;0.82;0.50;;;;;;;;;;5075377;28;20502;-77
2024/02/08 12:03:01;;;;;;;1.08;0.40;;;;;;;;;;5062187;28;20183;-78
2024/02/08 12:05:33;;;;;;;0.47;0.40;;;;;;;;;;5085045;28;20472;-77
2024/02/08 12:08:08;;;;;;;0.30;0.30;;;;;;;;;;5069286;28;20076;-78
2024/02/08 12:10:35;;;;;;;2.13;0.68;;;;;;;;;;5076546;28;20020;-77
2024/02/08 12:13:02;;;;;;;3.42;0.60;;;;;;;;;;5082809;28;20058;-77
2024/02/08 12:15:29;;;;;;;0.50;0.50;;;;;;;;;;5075637;28;20032;-77
2024/02/08 12:18:09;;;;;;;0.50;0.30;;;;;;;;;;5075817;28;20055;-77
2024/02/08 12:20:36;;;;;;;1.55;0.47;;;;;;;;;;5080812;28;20299;-76
2024/02/08 12:23:02;;;;;;;2.15;0.70;;;;;;;;;;5095002;28;20043;-78
2024/02/08 12:25:33;;;;;;;0.55;0.30;;;;;;;;;;5094688;27;20036;-79
2024/02/08 12:28:01;;;;;;;0.40;0.40;;;;;;;;;;5096015;28;20012;-79
2024/02/08 12:30:32;;;;;;;1.13;0.40;;;;;;;;;;5088033;28;20027;-79
2024/02/08 12:32:59;;;;;;;1.08;0.30;;;;;;;;;;5089345;28;20020;-77
2024/02/08 12:35:28;;;;;;;0.98;0.28;;;;;;;;;;5085883;28;20024;-77
2024/02/08 12:37:58;;;;;;;0.43;0.43;;;;;;;;;;5084058;28;20051;-77
2024/02/08 12:40:29;;;;;;;1.05;0.70;;;;;;;;;;5076704;28;20115;-76
2024/02/08 12:42:57;;;;;;;0.65;0.65;;;;;;;;;;5084681;28;20016;-77
2024/02/08 12:45:23;;;;;;;0.50;0.50;;;;;;;;;;5079848;28;20072;-78
2024/02/08 12:47:49;;;;;;;0.38;0.38;;;;;;;;;;5092307;28;20046;-79
2024/02/08 12:50:17;;;;;;;0.40;0.30;;;;;;;;;;5098253;28;20041;-77
2024/02/08 12:52:44;;;;;;;0.75;0.40;;;;;;;;;;5082600;28;20363;-77
2024/02/08 12:55:13;;;;;;;1.55;0.80;;;;;;;;;;5088057;28;20092;-77
2024/02/08 12:57:40;;;;;;;1.10;0.65;;;;;;;;;;5076880;28;20031;-78
2024/02/08 13:00:09;;;;;;;1.33;0.45;;;;;;;;;;5078233;28;20021;-77
2024/02/08 13:02:35;;;;;;;1.85;0.50;;;;;;;;;;5077929;28;20032;-77
2024/02/08 13:05:02;;;;;;;0.60;0.55;;;;;;;;;;5077264;28;20059;-76
2024/02/08 13:07:29;;;;;;;0.32;0.30;;;;;;;;;;5078142;28;20016;-78
2024/02/08 13:10:14;;;;;;;0.38;0.30;;;;;;;;;;5074480;28;20027;-78
2024/02/08 13:12:40;;;;;;;2.08;0.63;;;;;;;;;;5087277;28;20096;-77
2024/02/08 13:15:06;;;;;;;0.25;0.20;;;;;;;;;;5083778;28;20016;-76
2024/02/08 13:17:33;;;;;;;1.27;0.40;;;;;;;;;;5076586;28;20503;-76
2024/02/08 13:20:00;;;;;;;0.85;0.70;;;;;;;;;;5096383;27;20039;-77
2024/02/08 13:22:33;;;;;;;0.65;0.30;;;;;;;;;;5065279;28;20059;-76
2024/02/08 13:24:59;;;;;;;0.43;0.22;;;;;;;;;;5085818;28;20023;-77
2024/02/08 13:27:29;;;;;;;0.57;0.20;;;;;;;;;;5079824;28;20206;-76
2024/02/08 13:29:56;;;;;;;0.65;0.40;;;;;;;;;;5076532;28;20021;-77
2024/02/08 13:32:25;;;;;;;0.68;0.60;;;;;;;;;;5084238;28;20020;-77
2024/02/08 13:34:54;;;;;;;1.38;0.60;;;;;;;;;;5076620;28;20024;-77
2024/02/08 13:37:21;;;;;;;0.25;0.25;;;;;;;;;;5085318;28;20032;-77
2024/02/08 13:39:48;;;;;;;0.63;0.40;;;;;;;;;;5079657;28;20386;-77
2024/02/08 13:42:15;;;;;;;0.43;0.43;;;;;;;;;;5075331;28;20029;-76
2024/02/08 13:44:44;;;;;;;1.13;0.40;;;;;;;;;;5066641;28;20384;-77
2024/02/08 13:47:10;;;;;;;3.80;0.50;;;;;;;;;;5076615;28;20043;-76
2024/02/08 13:49:37;;;;;;;1.48;0.60;;;;;;;;;;5076896;28;20384;-78
2024/02/08 13:52:03;;;;;;;4.18;0.70;;;;;;;;;;5075908;28;20035;-77
2024/02/08 13:54:31;;;;;;;0.70;0.30;;;;;;;;;;5056899;28;20037;-78
2024/02/08 13:56:58;;;;;;;2.45;0.50;;;;;;;;;;5065777;28;20021;-78
2024/02/08 13:59:25;;;;;;;0.63;0.38;;;;;;;;;;5065587;28;20036;-78
2024/02/08 14:01:52;;;;;;;1.50;0.30;;;;;;;;;;5073252;28;20021;-76
2024/02/08 14:04:22;;;;;;;0.32;0.32;;;;;;;;;;5072376;28;20070;-78
2024/02/08 14:06:55;;;;;;;0.63;0.55;;;;;;;;;;5075919;28;20013;-77
2024/02/08 14:09:23;;;;;;;1.30;0.50;;;;;;;;;;5075915;28;20097;-78
2024/02/08 14:11:55;;;;;;;1.70;0.77;;;;;;;;;;5075971;28;20505;-77
2024/02/08 14:14:29;;;;;;;0.93;0.50;;;;;;;;;;5077296;28;20028;-79
2024/02/08 14:16:58;;;;;;;3.03;0.40;;;;;;;;;;5075855;28;20184;-77
2024/02/08 14:19:36;;;;;;;0.70;0.40;;;;;;;;;;5078691;28;20038;-79
2024/02/08 14:22:08;;;;;;;0.60;0.45;;;;;;;;;;5087606;28;20030;-78
2024/02/08 14:24:48;;;;;;;2.50;0.85;;;;;;;;;;5083166;28;20005;-78
2024/02/08 14:27:14;;;;;;;1.90;0.60;;;;;;;;;;5097333;28;20039;-79
2024/02/08 14:29:42;;;;;;;3.17;0.50;;;;;;;;;;5097515;28;20015;-78
2024/02/08 14:32:08;;;;;;;1.75;0.57;;;;;;;;;;5097770;27;20597;-80
2024/02/08 14:34:39;;;;;;;1.27;0.68;;;;;;;;;;5097521;27;20016;-77
2024/02/08 14:37:08;;;;;;;3.13;0.90;;;;;;;;;;5090908;27;20041;-78
2024/02/08 14:39:35;;;;;;;3.17;0.93;;;;;;;;;;5096319;27;20063;-78
2024/02/08 14:42:11;;;;;;;1.83;0.65;;;;;;;;;;5104577;27;20059;-78
2024/02/08 14:44:41;;;;;;;1.55;0.70;;;;;;;;;;5092666;27;20092;-77
2024/02/08 14:47:08;;;;;;;5.13;1.27;;;;;;;;;;5082553;28;20082;-78
2024/02/08 14:49:54;;;;;;;4.85;0.93;;;;;;;;;;5084037;28;20124;-77
2024/02/08 14:52:24;;;;;;;1.67;1.08;;;;;;;;;;5074255;28;20025;-78
2024/02/08 14:54:54;;;;;;;3.17;1.05;;;;;;;;;;5077804;28;20383;-77
2024/02/08 14:57:24;;;;;;;6.93;1.13;;;;;;;;;;5076089;28;20444;-77
2024/02/08 14:59:52;;;;;;;4.90;1.35;;;;;;;;;;5075141;28;20024;-77
2024/02/08 15:02:29;;;;;;;4.57;1.33;;;;;;;;;;5076791;28;20017;-77
2024/02/08 15:05:00;;;;;;;6.47;1.27;;;;;;;;;;5074502;28;20016;-78
2024/02/08 15:07:47;;;;;;;6.90;1.25;;;;;;;;;;5075802;28;20047;-77
2024/02/08 15:10:15;;;;;;;2.72;1.20;;;;;;;;;;5074756;28;20020;-77
2024/02/08 15:12:51;;;;;;;2.08;1.20;;;;;;;;;;5075337;28;20059;-77
2024/02/08 15:15:29;;;;;;;5.05;1.33;;;;;;;;;;5066259;28;20024;-79
2024/02/08 15:18:11;;;;;;;6.65;1.33;;;;;;;;;;5063909;28;20424;-77
2024/02/08 15:20:43;;;;;;;4.10;1.40;;;;;;;;;;5065964;28;20032;-77
2024/02/08 15:23:09;;;;;;;6.57;1.60;;;;;;;;;;5067921;28;20024;-78
2024/02/08 15:25:43;;;;;;;7.57;1.80;;;;;;;;;;5074769;28;20024;-77
2024/02/08 15:28:25;;;;;;;13.75;2.17;;;;;;;;;;5079606;28;20104;-77
2024/02/08 15:30:55;;;;;;;11.85;1.55;;;;;;;;;;5074002;28;20028;-77
2024/02/08 15:33:31;;;;;;;7.45;1.80;;;;;;;;;;5072974;28;20024;-77
2024/02/08 15:36:10;;;;;;;4.88;1.30;;;;;;;;;;5074551;28;20020;-78
2024/02/08 15:38:45;;;;;;;7.85;1.50;;;;;;;;;;5080469;28;20035;-76
2024/02/08 15:41:19;;;;;;;8.55;1.52;;;;;;;;;;5071179;28;20544;-78
2024/02/08 15:43:48;;;;;;;6.88;1.52;;;;;;;;;;5074453;28;20051;-77
2024/02/08 15:46:19;;;;;;;2.92;1.27;;;;;;;;;;5073744;28;20479;-78
2024/02/08 15:48:45;;;;;;;6.32;1.52;;;;;;;;;;5073885;28;20047;-77
2024/02/08 15:51:12;;;;;;;10.07;2.22;;;;;;;;;;5074242;28;20025;-78
2024/02/08 15:53:56;;;;;;;9.95;2.00;;;;;;;;;;5073265;28;20031;-77
2024/02/08 15:56:23;;;;;;;8.88;1.52;;;;;;;;;;5073455;28;20029;-78
2024/02/08 15:59:03;;;;;;;5.55;2.00;;;;;;;;;;5068596;28;20035;-78
2024/02/08 16:01:57;;;;;;;5.97;1.90;;;;;;;;;;5080634;28;20478;-78
2024/02/08 16:07:14;;;;;;;10.35;2.08;;;;;;;;;;5071845;28;20132;-79
2024/02/08 16:09:45;;;;;;;;;;;;;;;;;;5077222;28;20027;-78
2024/02/08 16:12:13;;;;;;;11.38;5.88;;;;;;;;;;5079064;28;19912;-77
2024/02/08 16:14:49;;;;;;;10.82;4.18;;;;;;;;;;5077971;28;20513;-78
2024/02/08 16:19:58;;;;;;;8.23;2.30;;;;;;;;;;5073003;28;20028;-78
2024/02/08 16:22:37;;;;;;;8.77;1.90;;;;;;;;;;5079142;28;20029;-78
2024/02/08 16:25:03;;;;;;;6.63;3.10;;;;;;;;;;5078169;28;20015;-78
2024/02/08 16:27:30;;;;;;;8.98;2.63;;;;;;;;;;5076272;28;20021;-78
2024/02/08 16:30:07;;;;;;;8.45;3.08;;;;;;;;;;5086548;28;20040;-77
2024/02/08 16:32:33;;;;;;;16.65;4.88;;;;;;;;;;5089281;28;20326;-78
2024/02/08 16:38:07;;;;;;;6.95;2.72;;;;;;;;;;5020755;28;20345;-78
2024/02/08 16:40:43;;;;;;;6.25;2.88;;;;;;;;;;5076610;28;20025;-78
2024/02/08 16:43:17;;;;;;;11.85;2.88;;;;;;;;;;5076284;28;20056;-78
2024/02/08 16:45:56;;;;;;;12.40;3.28;;;;;;;;;;5075602;28;20031;-78
2024/02/08 16:48:36;;;;;;;17.33;7.07;;;;;;;;;;5077644;28;20031;-79
2024/02/08 16:54:29;;;;;;;10.38;4.40;;;;;;;;;;5070411;28;20409;-80
2024/02/08 16:56:56;;;;;;;9.38;3.53;;;;;;;;;;5065444;28;20021;-76
2024/02/08 16:59:29;;;;;;;5.60;2.47;;;;;;;;;;5062087;28;20029;-79
2024/02/08 17:02:07;;;;;;;6.80;3.08;;;;;;;;;;5071777;28;20084;-77
2024/02/08 17:04:40;;;;;;;12.10;3.63;;;;;;;;;;5072638;28;20095;-77
2024/02/08 17:07:24;;;;;;;12.07;2.53;;;;;;;;;;5076157;28;20028;-78
2024/02/08 17:09:57;;;;;;;16.08;3.15;;;;;;;;;;5070943;28;20013;-77
2024/02/08 17:12:35;;;;;;;15.10;3.10;;;;;;;;;;5071366;28;20028;-79
2024/02/08 17:15:20;;;;;;;11.73;2.95;;;;;;;;;;5073979;28;20039;-80
2024/02/08 17:17:49;;;;;;;7.18;2.40;;;;;;;;;;5077632;28;20024;-76